createdAt,value
2019-03-08T00:01:09.007Z,14.73
2019-03-08T00:03:40.006Z,9.27
2019-03-08T00:06:09.623Z,11.50
2019-03-08T00:08:39.057Z,10.17
2019-03-08T00:11:08.637Z,13.43
2019-03-08T00:13:38.140Z,12.60
2019-03-08T00:16:07.704Z,8.57
2019-03-08T00:18:37.316Z,12.10
2019-03-08T00:21:06.938Z,9.80
2019-03-08T00:23:36.613Z,9.93
2019-03-08T00:26:06.086Z,17.20
2019-03-08T00:28:35.618Z,11.50
2019-03-08T00:31:05.487Z,8.00
2019-03-08T00:33:34.957Z,10.47
2019-03-08T00:36:04.502Z,13.40
2019-03-08T00:38:33.970Z,9.87
2019-03-08T00:41:03.439Z,7.73
2019-03-08T00:43:32.844Z,9.67
2019-03-08T00:46:03.357Z,6.63
2019-03-08T00:48:32.879Z,7.60
2019-03-08T00:51:02.653Z,9.77
2019-03-08T00:53:32.110Z,4.43
2019-03-08T00:56:01.784Z,7.57
2019-03-08T00:58:32.952Z,8.67
2019-03-08T01:01:02.454Z,8.03
2019-03-08T01:03:31.930Z,10.03
2019-03-08T01:06:01.439Z,12.57
2019-03-08T01:08:31.059Z,15.27
2019-03-08T01:11:00.563Z,15.80
2019-03-08T01:13:30.187Z,19.50
2019-03-08T01:15:59.796Z,15.10
2019-03-08T01:18:29.575Z,18.77
2019-03-08T01:20:59.044Z,14.50
2019-03-08T01:23:28.516Z,13.30
2019-03-08T01:25:58.073Z,10.40
2019-03-08T01:28:27.719Z,13.53
2019-03-08T01:30:57.490Z,14.40
2019-03-08T01:33:28.248Z,15.67
2019-03-08T01:35:59.222Z,12.67
2019-03-08T01:38:28.698Z,14.90
2019-03-08T01:40:58.240Z,9.13
2019-03-08T01:43:27.773Z,13.87
2019-03-08T01:45:57.341Z,13.97
2019-03-08T01:48:26.811Z,13.43
2019-03-08T01:50:56.379Z,8.43
2019-03-08T01:53:26.060Z,13.40
2019-03-08T01:55:55.533Z,11.47
2019-03-08T01:58:25.382Z,14.30
2019-03-08T02:00:54.887Z,12.97
2019-03-08T02:03:24.357Z,13.57
2019-03-08T02:05:53.794Z,15.10
2019-03-08T02:08:23.327Z,15.53
2019-03-08T02:10:52.759Z,12.23
2019-03-08T02:13:22.367Z,12.10
2019-03-08T02:15:51.942Z,10.50
2019-03-08T02:18:21.421Z,12.03
2019-03-08T02:20:52.277Z,13.83
2019-03-08T02:23:21.961Z,8.80
2019-03-08T02:25:51.700Z,10.67
2019-03-08T02:28:21.191Z,13.37
2019-03-08T02:30:50.615Z,13.13
2019-03-08T02:33:20.119Z,10.10
2019-03-08T02:35:49.596Z,13.23
2019-03-08T02:38:19.078Z,13.00
2019-03-08T02:40:48.503Z,18.93
2019-03-08T02:43:18.625Z,12.63
2019-03-08T02:45:48.138Z,18.10
2019-03-08T02:48:17.687Z,22.17
2019-03-08T02:50:48.711Z,21.03
2019-03-08T02:53:18.564Z,20.73
2019-03-08T02:55:48.097Z,13.97
2019-03-08T02:58:17.610Z,12.90
2019-03-08T03:00:47.473Z,13.73
2019-03-08T03:03:17.443Z,17.80
2019-03-08T03:05:47.063Z,18.90
2019-03-08T03:08:16.679Z,20.73
2019-03-08T03:10:46.223Z,26.17
2019-03-08T03:13:15.799Z,22.20
2019-03-08T03:15:45.269Z,15.50
2019-03-08T03:18:14.712Z,22.30
2019-03-08T03:20:44.250Z,21.17
2019-03-08T03:23:13.841Z,23.23
2019-03-08T03:25:43.465Z,23.40
2019-03-08T03:28:13.083Z,19.37
2019-03-08T03:30:42.695Z,27.33
2019-03-08T03:33:12.407Z,29.17
2019-03-08T03:35:41.893Z,28.77
2019-03-08T03:38:11.344Z,28.80
2019-03-08T03:40:40.807Z,22.43
2019-03-08T03:43:10.374Z,25.53
2019-03-08T03:45:39.982Z,19.50
2019-03-08T03:48:12.240Z,22.50
2019-03-08T03:50:41.773Z,18.07
2019-03-08T03:53:11.243Z,25.73
2019-03-08T03:55:40.845Z,20.03
2019-03-08T03:58:10.342Z,24.60
2019-03-08T04:00:40.184Z,24.20
2019-03-08T04:03:09.729Z,28.73
2019-03-08T04:05:42.218Z,30.93
2019-03-08T04:08:11.677Z,37.03
2019-03-08T04:10:41.836Z,30.57
2019-03-08T04:13:11.507Z,28.80
2019-03-08T04:15:41.015Z,33.63
2019-03-08T04:18:10.474Z,25.63
2019-03-08T04:20:39.982Z,32.87
2019-03-08T04:23:09.520Z,32.90
2019-03-08T04:25:39.125Z,33.97
2019-03-08T04:28:08.615Z,34.30
2019-03-08T04:30:38.112Z,33.77
2019-03-08T04:33:07.629Z,33.60
2019-03-08T04:35:37.059Z,30.90
2019-03-08T04:38:06.533Z,32.90
2019-03-08T04:40:36.103Z,42.80
2019-03-08T04:43:05.617Z,39.70
2019-03-08T04:45:35.109Z,40.37
2019-03-08T04:48:04.653Z,39.30
2019-03-08T04:50:34.128Z,34.07
2019-03-08T04:53:03.869Z,33.67
2019-03-08T04:55:33.701Z,43.17
2019-03-08T04:58:03.253Z,37.20
2019-03-08T05:00:32.789Z,33.30
2019-03-08T05:03:02.250Z,37.70
2019-03-08T05:05:31.721Z,36.27
2019-03-08T05:08:01.256Z,31.37
2019-03-08T05:10:30.808Z,27.67
2019-03-08T05:13:00.271Z,32.27
2019-03-08T05:15:29.750Z,29.77
2019-03-08T05:17:59.671Z,29.17
2019-03-08T05:20:30.686Z,26.27
2019-03-08T05:23:00.600Z,25.13
2019-03-08T05:25:31.243Z,28.83
2019-03-08T05:28:01.708Z,32.43
2019-03-08T05:30:31.255Z,31.30
2019-03-08T05:33:00.731Z,46.87
2019-03-08T05:35:30.191Z,37.10
2019-03-08T05:37:59.667Z,38.77
2019-03-08T05:40:29.137Z,39.77
2019-03-08T05:42:58.611Z,31.70
2019-03-08T05:45:29.354Z,36.27
2019-03-08T05:47:58.926Z,32.20
2019-03-08T05:50:28.763Z,34.00
2019-03-08T05:52:58.242Z,31.37
2019-03-08T05:55:28.193Z,31.63
2019-03-08T05:57:57.658Z,26.00
2019-03-08T06:00:32.145Z,26.60
2019-03-08T06:03:00.015Z,26.10
2019-03-08T06:05:29.487Z,28.77
2019-03-08T06:07:58.955Z,38.27
2019-03-08T06:10:33.856Z,26.73
2019-03-08T06:13:05.088Z,27.87
2019-03-08T06:15:35.230Z,34.07
2019-03-08T06:18:05.135Z,26.13
2019-03-08T06:20:34.743Z,31.13
2019-03-08T06:23:04.701Z,30.93
2019-03-08T06:25:34.374Z,29.77
2019-03-08T06:28:04.241Z,22.20
2019-03-08T06:30:34.003Z,29.60
2019-03-08T06:33:04.214Z,26.03
2019-03-08T06:35:33.762Z,26.30
2019-03-08T06:38:03.235Z,26.07
2019-03-08T06:40:32.678Z,31.00
2019-03-08T06:43:02.151Z,27.60
2019-03-08T06:45:32.268Z,27.67
2019-03-08T06:48:01.740Z,28.27
2019-03-08T06:50:31.179Z,17.03
2019-03-08T06:53:01.071Z,15.73
2019-03-08T06:55:31.640Z,14.07
2019-03-08T06:58:02.950Z,14.30
2019-03-08T07:00:47.825Z,19.50
2019-03-08T07:03:17.303Z,18.20
2019-03-08T07:05:47.750Z,19.77
2019-03-08T07:08:17.388Z,25.60
2019-03-08T07:10:47.227Z,23.50
2019-03-08T07:13:16.746Z,25.57
2019-03-08T07:15:46.279Z,24.40
2019-03-08T07:18:15.770Z,22.47
2019-03-08T07:20:46.826Z,25.80
2019-03-08T07:23:27.896Z,23.33
2019-03-08T07:26:10.060Z,18.73
2019-03-08T07:28:43.910Z,16.77
2019-03-08T07:31:17.677Z,23.47
2019-03-08T07:34:05.393Z,16.30
2019-03-08T07:36:42.911Z,22.67
2019-03-08T07:39:35.014Z,21.93
2019-03-08T07:42:18.587Z,27.80
2019-03-08T07:44:55.494Z,24.80
2019-03-08T07:47:42.548Z,19.20
2019-03-08T07:50:17.979Z,23.57
2019-03-08T07:52:55.340Z,19.10
2019-03-08T07:55:30.972Z,19.63
2019-03-08T07:58:04.636Z,17.87
2019-03-08T08:00:35.806Z,20.07
2019-03-08T08:03:09.593Z,17.13
2019-03-08T08:05:57.989Z,18.97
2019-03-08T08:08:41.440Z,25.37
2019-03-08T08:11:24.698Z,26.57
2019-03-08T08:13:58.348Z,18.77
2019-03-08T08:16:32.355Z,26.00
2019-03-08T08:19:09.486Z,23.43
2019-03-08T08:21:46.582Z,26.33
2019-03-08T08:24:17.692Z,25.53
2019-03-08T08:26:58.120Z,26.37
2019-03-08T08:29:35.009Z,30.07
2019-03-08T08:32:01.972Z,24.50
2019-03-08T08:34:41.919Z,21.63
2019-03-08T08:37:29.573Z,22.90
2019-03-08T08:40:06.511Z,25.30
2019-03-08T08:42:53.016Z,23.67
2019-03-08T08:45:31.464Z,21.73
2019-03-08T08:48:02.574Z,24.23
2019-03-08T08:50:39.668Z,20.23
2019-03-08T08:53:27.431Z,25.93
2019-03-08T08:55:58.619Z,23.37
2019-03-08T08:58:32.566Z,21.03
2019-03-08T09:01:03.832Z,21.73
2019-03-08T09:03:34.985Z,26.00
2019-03-08T09:06:07.140Z,27.83
2019-03-08T09:08:38.218Z,21.17
2019-03-08T09:11:12.604Z,25.57
2019-03-08T09:13:49.521Z,31.30
2019-03-08T09:16:24.023Z,23.70
2019-03-08T09:18:57.797Z,24.73
2019-03-08T09:21:43.824Z,28.83
2019-03-08T09:24:17.649Z,23.10
2019-03-08T09:26:50.368Z,24.80
2019-03-08T09:29:22.996Z,24.37
2019-03-08T09:31:59.855Z,22.70
2019-03-08T09:34:30.865Z,24.77
2019-03-08T09:37:20.157Z,25.50
2019-03-08T09:39:56.867Z,24.30
2019-03-08T09:42:33.669Z,22.33
2019-03-08T09:45:21.851Z,16.93
2019-03-08T09:48:09.176Z,20.10
2019-03-08T09:50:40.485Z,22.97
2019-03-08T09:53:14.746Z,20.10
2019-03-08T09:56:04.339Z,23.10
2019-03-08T09:58:41.384Z,29.30
2019-03-08T10:01:18.494Z,23.20
2019-03-08T10:04:07.792Z,23.17
2019-03-08T10:06:48.072Z,22.27
2019-03-08T10:09:31.352Z,19.50
2019-03-08T10:12:11.759Z,23.47
2019-03-08T10:14:58.295Z,18.97
2019-03-08T10:17:30.994Z,22.60
2019-03-08T10:20:10.887Z,21.97
2019-03-08T10:22:45.142Z,22.63
2019-03-08T10:25:19.279Z,19.53
2019-03-08T10:27:53.132Z,20.93
2019-03-08T10:30:26.907Z,16.23
2019-03-08T10:32:58.229Z,21.07
2019-03-08T10:35:29.438Z,20.83
2019-03-08T10:38:00.583Z,23.23
2019-03-08T10:40:48.407Z,23.07
2019-03-08T10:43:24.513Z,20.17
2019-03-08T10:46:15.775Z,18.23
2019-03-08T10:48:57.168Z,22.73
2019-03-08T10:51:31.013Z,21.77
2019-03-08T10:54:18.397Z,23.80
2019-03-08T10:56:49.466Z,21.30
2019-03-08T10:59:37.023Z,17.00
2019-03-08T11:02:27.062Z,20.97
2019-03-08T11:05:01.364Z,22.33
2019-03-08T11:07:35.616Z,19.80
2019-03-08T11:10:12.710Z,19.33
2019-03-08T11:12:52.994Z,16.77
2019-03-08T11:15:27.340Z,21.73
2019-03-08T11:17:58.417Z,17.93
2019-03-08T11:20:38.364Z,19.07
2019-03-08T11:23:25.928Z,16.70
2019-03-08T11:25:56.991Z,22.77
2019-03-08T11:28:44.415Z,15.33
2019-03-08T11:31:25.166Z,18.07
2019-03-08T11:33:58.791Z,19.60
2019-03-08T11:36:33.094Z,13.67
2019-03-08T11:39:10.179Z,18.40
2019-03-08T11:41:44.363Z,14.90
2019-03-08T11:44:18.256Z,11.23
2019-03-08T11:47:05.946Z,16.33
2019-03-08T11:49:37.035Z,16.87
2019-03-08T11:52:20.308Z,17.80
2019-03-08T11:55:17.386Z,20.43
2019-03-08T11:58:05.248Z,19.60
2019-03-08T12:00:36.450Z,15.90
2019-03-08T12:03:17.180Z,16.40
2019-03-08T12:06:05.095Z,16.20
2019-03-08T12:08:41.913Z,16.93
2019-03-08T12:11:31.849Z,19.90
2019-03-08T12:14:03.209Z,13.03
2019-03-08T12:16:51.095Z,17.87
2019-03-08T12:19:25.028Z,15.17
2019-03-08T12:22:05.125Z,22.77
2019-03-08T12:24:45.524Z,13.17
2019-03-08T12:27:16.690Z,19.07
2019-03-08T12:29:59.571Z,15.80
2019-03-08T12:32:33.652Z,19.73
2019-03-08T12:35:21.123Z,17.00
2019-03-08T12:37:58.154Z,19.17
2019-03-08T12:40:35.221Z,10.90
2019-03-08T12:43:18.585Z,15.03
2019-03-08T12:46:05.995Z,9.33
2019-03-08T12:48:44.039Z,15.10
2019-03-08T12:51:31.266Z,14.13
2019-03-08T12:54:20.576Z,16.47
2019-03-08T12:57:07.843Z,12.97
2019-03-08T12:59:39.564Z,11.77
2019-03-08T13:02:19.865Z,15.00
2019-03-08T13:05:00.361Z,11.27
2019-03-08T13:07:31.492Z,12.20
2019-03-08T13:10:11.868Z,17.17
2019-03-08T13:12:41.445Z,14.57
2019-03-08T13:15:13.683Z,12.77
2019-03-08T13:17:43.181Z,13.53
2019-03-08T13:20:17.647Z,19.40
2019-03-08T13:22:47.180Z,13.43
2019-03-08T13:25:16.822Z,13.70
2019-03-08T13:27:46.635Z,17.03
2019-03-08T13:30:18.838Z,13.73
2019-03-08T13:32:48.407Z,15.33
2019-03-08T13:35:17.954Z,15.63
2019-03-08T13:37:47.604Z,17.50
2019-03-08T13:40:17.315Z,14.77
2019-03-08T13:42:46.755Z,17.57
2019-03-08T13:45:18.547Z,16.60
2019-03-08T13:47:47.998Z,12.47
2019-03-08T13:50:17.475Z,13.97
2019-03-08T13:52:47.084Z,13.50
2019-03-08T13:55:19.893Z,14.53
2019-03-08T13:57:49.420Z,12.17
2019-03-08T14:00:19.947Z,15.90
2019-03-08T14:02:49.492Z,13.80
2019-03-08T14:05:20.580Z,16.37
2019-03-08T14:07:50.152Z,14.17
2019-03-08T14:10:21.730Z,8.10
2019-03-08T14:12:51.272Z,9.93
2019-03-08T14:15:20.820Z,12.70
2019-03-08T14:17:50.359Z,11.73
2019-03-08T14:20:27.058Z,10.03
2019-03-08T14:22:56.547Z,11.87
2019-03-08T14:25:26.096Z,12.67
2019-03-08T14:27:55.632Z,8.27
2019-03-08T14:30:45.139Z,11.33
2019-03-08T14:33:14.578Z,10.20
2019-03-08T14:35:44.451Z,11.20
2019-03-08T14:38:14.054Z,9.70
2019-03-08T14:40:53.290Z,9.37
2019-03-08T14:43:27.220Z,10.17
2019-03-08T14:46:11.813Z,12.50
2019-03-08T14:48:42.558Z,10.50
2019-03-08T14:51:13.072Z,12.07
2019-03-08T14:53:42.649Z,8.90
2019-03-08T14:56:13.276Z,14.20
2019-03-08T14:58:42.935Z,15.47
2019-03-08T15:01:12.932Z,14.00
2019-03-08T15:03:44.137Z,13.90
2019-03-08T15:06:13.757Z,10.83
2019-03-08T15:08:43.289Z,10.20
2019-03-08T15:11:12.948Z,11.53
2019-03-08T15:13:43.707Z,15.17
2019-03-08T15:16:13.205Z,11.70
2019-03-08T15:18:42.609Z,15.77
2019-03-08T15:21:12.186Z,10.37
2019-03-08T15:23:41.599Z,14.50
2019-03-08T15:26:11.332Z,13.10
2019-03-08T15:28:40.790Z,9.90
2019-03-08T15:31:10.338Z,10.23
2019-03-08T15:33:39.947Z,10.13
2019-03-08T15:36:09.419Z,14.87
2019-03-08T15:38:38.979Z,11.30
2019-03-08T15:41:08.488Z,12.73
2019-03-08T15:43:37.951Z,11.03
2019-03-08T15:46:07.395Z,9.60
2019-03-08T15:48:36.999Z,7.73
2019-03-08T15:51:06.496Z,12.27
2019-03-08T15:53:35.884Z,12.53
2019-03-08T15:56:06.824Z,8.33
2019-03-08T15:58:36.312Z,11.10
2019-03-08T16:01:08.009Z,8.87
2019-03-08T16:03:37.287Z,9.87
2019-03-08T16:06:07.485Z,9.43
2019-03-08T16:08:39.709Z,12.77
2019-03-08T16:11:08.208Z,15.63
2019-03-08T16:13:37.820Z,16.90
2019-03-08T16:16:07.549Z,10.43
2019-03-08T16:18:40.034Z,11.27
2019-03-08T16:21:08.156Z,11.97
2019-03-08T16:23:37.597Z,12.03
2019-03-08T16:26:07.143Z,15.67
2019-03-08T16:28:37.111Z,9.93
2019-03-08T16:31:25.630Z,17.27
2019-03-08T16:34:02.526Z,12.03
2019-03-08T16:36:33.727Z,10.07
2019-03-08T16:39:20.968Z,15.43
2019-03-08T16:42:10.007Z,12.33
2019-03-08T16:44:57.648Z,12.77
2019-03-08T16:47:31.542Z,16.90
2019-03-08T16:50:05.497Z,13.43
2019-03-08T16:52:46.779Z,12.73
2019-03-08T16:55:19.543Z,19.77
2019-03-08T16:57:59.479Z,12.83
2019-03-08T17:00:36.112Z,15.73
2019-03-08T17:03:16.098Z,16.43
2019-03-08T17:05:47.292Z,15.97
2019-03-08T17:08:27.693Z,17.17
2019-03-08T17:11:04.507Z,17.57
2019-03-08T17:13:35.923Z,15.57
2019-03-08T17:16:07.385Z,15.93
2019-03-08T17:18:55.242Z,19.60
2019-03-08T17:21:39.906Z,16.37
2019-03-08T17:24:11.134Z,17.33
2019-03-08T17:26:45.385Z,12.83
2019-03-08T17:29:16.476Z,18.67
2019-03-08T17:31:53.116Z,14.43
2019-03-08T17:34:40.548Z,13.43
2019-03-08T17:37:17.280Z,16.00
2019-03-08T17:40:06.751Z,12.13
2019-03-08T17:42:40.903Z,14.27
2019-03-08T17:45:21.630Z,15.00
2019-03-08T17:48:08.329Z,16.77
2019-03-08T17:50:54.462Z,15.63
2019-03-08T17:53:34.595Z,17.53
2019-03-08T17:56:11.691Z,10.30
2019-03-08T17:58:47.848Z,15.13
2019-03-08T18:01:24.634Z,11.93
2019-03-08T18:03:58.480Z,10.47
2019-03-08T18:06:38.863Z,11.20
2019-03-08T18:09:12.992Z,12.13
2019-03-08T18:11:53.268Z,18.13
2019-03-08T18:14:30.249Z,12.47
2019-03-08T18:17:01.314Z,16.70
2019-03-08T18:19:32.522Z,14.00
2019-03-08T18:22:09.409Z,13.97
2019-03-08T18:24:49.694Z,14.33
2019-03-08T18:27:26.998Z,15.87
2019-03-08T18:30:07.440Z,14.80
2019-03-08T18:32:44.595Z,16.40
2019-03-08T18:35:31.881Z,11.60
2019-03-08T18:38:12.550Z,16.47
2019-03-08T18:40:43.667Z,16.30
2019-03-08T18:43:29.729Z,12.43
2019-03-08T18:46:06.722Z,12.73
2019-03-08T18:48:52.765Z,13.20
2019-03-08T18:51:35.875Z,11.20
2019-03-08T18:54:23.041Z,15.40
2019-03-08T18:56:57.455Z,12.97
2019-03-08T18:59:46.243Z,12.47
2019-03-08T19:02:20.522Z,13.03
2019-03-08T19:04:54.997Z,14.47
2019-03-08T19:07:44.024Z,11.60
2019-03-08T19:10:15.298Z,10.93
2019-03-08T19:12:46.797Z,13.10
2019-03-08T19:15:23.820Z,12.17
2019-03-08T19:18:09.936Z,13.80
2019-03-08T19:20:41.165Z,6.57
2019-03-08T19:23:15.376Z,11.33
2019-03-08T19:26:02.757Z,9.17
2019-03-08T19:28:36.990Z,13.83
2019-03-08T19:31:13.890Z,15.27
2019-03-08T19:33:44.968Z,10.87
2019-03-08T19:36:18.696Z,14.57
2019-03-08T19:39:07.720Z,12.57
2019-03-08T19:41:41.642Z,11.97
2019-03-08T19:44:12.912Z,15.93
2019-03-08T19:46:47.327Z,14.80
2019-03-08T19:49:18.408Z,24.83
2019-03-08T19:51:58.490Z,14.87
2019-03-08T19:54:29.583Z,16.13
2019-03-08T19:57:08.149Z,14.23
2019-03-08T19:59:51.539Z,12.83
2019-03-08T20:02:22.761Z,18.07
2019-03-08T20:04:53.879Z,12.10
2019-03-08T20:07:24.949Z,20.30
2019-03-08T20:10:14.341Z,14.67
2019-03-08T20:13:02.239Z,13.93
2019-03-08T20:15:51.237Z,15.43
2019-03-08T20:18:31.296Z,17.33
2019-03-08T20:21:11.200Z,14.23
2019-03-08T20:23:42.366Z,16.70
2019-03-08T20:26:20.789Z,19.50
2019-03-08T20:29:01.018Z,15.93
2019-03-08T20:31:34.957Z,15.23
2019-03-08T20:34:06.161Z,16.77
2019-03-08T20:36:43.295Z,17.13
2019-03-08T20:39:20.311Z,17.73
2019-03-08T20:41:51.401Z,15.30
2019-03-08T20:44:22.702Z,16.20
2019-03-08T20:46:53.833Z,15.60
2019-03-08T20:49:23.278Z,21.17
2019-03-08T20:51:52.756Z,17.00
2019-03-08T20:54:22.333Z,17.80
2019-03-08T20:56:52.184Z,15.30
2019-03-08T20:59:21.574Z,14.87
2019-03-08T21:01:51.100Z,14.27
2019-03-08T21:04:22.284Z,13.03
2019-03-08T21:06:51.775Z,10.90
2019-03-08T21:09:21.800Z,15.47
2019-03-08T21:11:51.533Z,13.50
2019-03-08T21:14:21.065Z,13.63
2019-03-08T21:16:50.489Z,14.90
2019-03-08T21:19:19.943Z,18.57
2019-03-08T21:21:50.276Z,17.47
2019-03-08T21:24:19.872Z,15.20
2019-03-08T21:26:49.485Z,14.17
2019-03-08T21:29:18.876Z,17.47
2019-03-08T21:31:48.663Z,13.87
2019-03-08T21:34:18.200Z,14.20
2019-03-08T21:36:48.088Z,17.93
2019-03-08T21:39:17.629Z,12.70
2019-03-08T21:41:47.089Z,14.57
2019-03-08T21:44:16.643Z,15.63
2019-03-08T21:46:46.148Z,15.63
2019-03-08T21:49:16.234Z,12.97
2019-03-08T21:51:45.745Z,12.80
2019-03-08T21:54:15.295Z,15.47
2019-03-08T21:56:44.807Z,11.60
2019-03-08T21:59:14.284Z,14.03
2019-03-08T22:01:43.714Z,18.33
2019-03-08T22:04:14.892Z,15.40
2019-03-08T22:06:44.342Z,9.50
2019-03-08T22:09:18.624Z,15.17
2019-03-08T22:11:48.523Z,15.13
2019-03-08T22:14:18.026Z,13.93
2019-03-08T22:16:47.446Z,14.40
2019-03-08T22:19:16.917Z,16.57
2019-03-08T22:21:46.352Z,13.90
2019-03-08T22:24:15.992Z,15.10
2019-03-08T22:26:45.535Z,10.37
2019-03-08T22:29:15.142Z,11.50
2019-03-08T22:31:44.579Z,13.67
2019-03-08T22:34:14.110Z,19.40
2019-03-08T22:36:43.993Z,12.73
2019-03-08T22:39:13.566Z,15.20
2019-03-08T22:41:43.034Z,12.03
2019-03-08T22:44:12.431Z,14.70
2019-03-08T22:46:45.166Z,15.40
2019-03-08T22:49:13.135Z,14.33
2019-03-08T22:51:42.558Z,18.77
2019-03-08T22:54:11.969Z,12.60
2019-03-08T22:56:41.470Z,17.57
2019-03-08T22:59:10.931Z,12.70
2019-03-08T23:01:45.189Z,13.03
2019-03-08T23:04:14.659Z,14.57
2019-03-08T23:06:44.087Z,20.00
2019-03-08T23:09:15.411Z,9.97
2019-03-08T23:11:46.812Z,12.67
2019-03-08T23:14:16.282Z,9.10
2019-03-08T23:16:45.643Z,10.87
2019-03-08T23:19:15.382Z,15.47
2019-03-08T23:21:44.877Z,11.70
2019-03-08T23:24:14.399Z,8.87
2019-03-08T23:26:48.238Z,11.43
2019-03-08T23:29:22.198Z,13.77
2019-03-08T23:31:53.278Z,10.73
2019-03-08T23:34:22.828Z,11.50
2019-03-08T23:36:52.259Z,10.97
2019-03-08T23:39:21.727Z,11.87
2019-03-08T23:41:51.249Z,9.63
2019-03-08T23:44:23.440Z,13.63
2019-03-08T23:46:52.811Z,12.83
2019-03-08T23:49:22.283Z,11.43
2019-03-08T23:51:51.719Z,11.13
2019-03-08T23:54:21.419Z,11.60
2019-03-08T23:56:51.006Z,12.77
2019-03-08T23:59:20.399Z,13.87
